Time,TemperatureF,DewpointF,PressureIn,WindDirection,WindDirectionDegrees,WindSpeedMPH,WindSpeedGustMPH,Humidity,HourlyPrecipIn,Conditions,Clouds,dailyrainin,SoftwareType,DateUTC
2013-03-03 00:00:00,53.4,41.9,30.06,North,0,0.0,2.0,65,0.00,,,0.00,meteohub,2013-03-03 05:00:00,
2013-03-03 00:01:00,53.4,41.9,30.06,North,0,0.0,2.0,65,0.00,,,0.00,meteohub,2013-03-03 05:01:00,
2013-03-03 00:02:00,53.2,41.7,30.06,North,0,0.0,2.0,65,0.00,,,0.00,meteohub,2013-03-03 05:02:00,
2013-03-03 00:08:00,53.1,42.1,30.06,NW,315,0.0,2.0,66,0.00,,,0.00,meteohub,2013-03-03 05:08:00,
2013-03-03 00:13:00,53.1,42.4,30.06,NW,315,0.0,1.0,67,0.00,,,0.00,meteohub,2013-03-03 05:13:00,
2013-03-03 00:18:00,52.9,42.6,30.06,NW,315,0.0,0.0,68,0.00,,,0.00,meteohub,2013-03-03 05:18:00,
2013-03-03 00:23:00,52.7,42.8,30.06,SW,225,0.0,0.0,69,0.00,,,0.00,meteohub,2013-03-03 05:23:00,
2013-03-03 00:29:00,52.5,43.0,30.06,SW,225,0.0,0.0,70,0.00,,,0.00,meteohub,2013-03-03 05:29:00,
2013-03-03 00:34:00,52.2,43.0,30.06,SW,225,0.0,0.0,71,0.00,,,0.00,meteohub,2013-03-03 05:34:00,
2013-03-03 00:39:00,52.2,43.7,30.06,NE,45,0.0,0.0,73,0.00,,,0.00,meteohub,2013-03-03 05:39:00,
2013-03-03 00:44:00,52.0,43.5,30.06,NE,45,0.0,0.0,73,0.00,,,0.00,meteohub,2013-03-03 05:44:00,
2013-03-03 00:49:00,51.8,43.3,30.06,NE,45,0.0,0.0,73,0.00,,,0.00,meteohub,2013-03-03 05:49:00,
2013-03-03 00:54:00,51.6,43.9,30.06,NE,45,0.0,0.0,75,0.00,,,0.00,meteohub,2013-03-03 05:54:00,
2013-03-03 01:00:00,51.4,44.1,30.06,NE,45,0.0,0.0,76,0.00,,,0.00,meteohub,2013-03-03 06:00:00,
2013-03-03 01:05:00,51.4,44.1,30.05,NE,45,0.0,0.0,76,0.00,,,0.00,meteohub,2013-03-03 06:05:00,
2013-03-03 01:10:00,51.3,45.0,30.06,NE,45,0.0,0.0,79,0.00,,,0.00,meteohub,2013-03-03 06:10:00,
2013-03-03 01:15:00,51.3,45.3,30.05,NE,45,0.0,0.0,80,0.00,,,0.00,meteohub,2013-03-03 06:15:00,
2013-03-03 01:20:00,51.3,46.0,30.06,NE,45,0.0,0.0,82,0.00,,,0.00,meteohub,2013-03-03 06:20:00,
2013-03-03 01:25:00,51.1,45.9,30.05,NE,45,0.0,0.0,82,0.00,,,0.00,meteohub,2013-03-03 06:25:00,
2013-03-03 01:31:00,50.9,45.9,30.05,NE,45,0.0,0.0,83,0.01,,,0.01,meteohub,2013-03-03 06:31:00,
2013-03-03 01:36:00,50.9,45.9,30.05,NE,45,0.0,0.0,83,0.01,,,0.01,meteohub,2013-03-03 06:36:00,
2013-03-03 01:41:00,50.7,46.0,30.05,NE,45,0.0,0.0,84,0.01,,,0.01,meteohub,2013-03-03 06:41:00,
2013-03-03 01:46:00,50.5,45.9,30.05,NE,45,0.0,0.0,84,0.01,,,0.01,meteohub,2013-03-03 06:46:00,
2013-03-03 01:51:00,50.5,46.2,30.05,NE,45,0.0,0.0,85,0.01,,,0.01,meteohub,2013-03-03 06:51:00,
2013-03-03 01:56:00,50.4,46.0,30.05,NE,45,0.0,0.0,85,0.01,,,0.01,meteohub,2013-03-03 06:56:00,
2013-03-03 02:02:00,50.2,45.9,30.05,NE,45,0.0,0.0,85,0.01,,,0.01,meteohub,2013-03-03 07:02:00,
2013-03-03 02:07:00,50.2,45.9,30.05,NE,45,0.0,0.0,85,0.01,,,0.01,meteohub,2013-03-03 07:07:00,
2013-03-03 02:12:00,50.0,45.7,30.05,NE,45,0.0,0.0,85,0.01,,,0.01,meteohub,2013-03-03 07:12:00,
2013-03-03 02:17:00,50.0,46.0,30.04,NE,45,0.0,0.0,86,0.01,,,0.01,meteohub,2013-03-03 07:17:00,
2013-03-03 02:22:00,49.8,46.0,30.05,NE,45,0.0,0.0,87,0.01,,,0.01,meteohub,2013-03-03 07:22:00,
2013-03-03 02:27:00,50.0,46.2,30.04,NE,45,0.0,0.0,87,0.01,,,0.01,meteohub,2013-03-03 07:27:00,
2013-03-03 02:32:00,50.2,46.8,30.04,NE,45,0.0,0.0,88,0.00,,,0.01,meteohub,2013-03-03 07:32:00,
2013-03-03 02:37:00,50.2,47.1,30.03,NE,45,0.0,1.0,89,0.00,,,0.01,meteohub,2013-03-03 07:37:00,
2013-03-03 02:42:00,50.2,47.1,30.03,NE,45,0.0,1.0,89,0.00,,,0.01,meteohub,2013-03-03 07:42:00,
2013-03-03 02:47:00,50.0,47.1,30.03,NE,45,0.0,1.0,90,0.00,,,0.01,meteohub,2013-03-03 07:47:00,
2013-03-03 02:52:00,50.0,47.1,30.03,NE,45,0.0,0.0,90,0.00,,,0.01,meteohub,2013-03-03 07:52:00,
2013-03-03 02:57:00,49.8,47.3,30.02,NW,315,0.0,0.0,91,0.00,,,0.01,meteohub,2013-03-03 07:57:00,
2013-03-03 03:02:00,49.6,47.1,30.03,NW,315,0.0,0.0,91,0.00,,,0.01,meteohub,2013-03-03 08:02:00,
2013-03-03 03:07:00,49.6,47.1,30.02,NW,315,0.0,0.0,91,0.00,,,0.01,meteohub,2013-03-03 08:07:00,
2013-03-03 03:12:00,49.6,47.5,30.02,NW,315,0.0,0.0,92,0.00,,,0.01,meteohub,2013-03-03 08:12:00,
2013-03-03 03:17:00,49.6,47.5,30.02,NW,315,0.0,0.0,92,0.00,,,0.01,meteohub,2013-03-03 08:17:00,
2013-03-03 03:22:00,49.5,47.3,30.02,NW,315,0.0,0.0,92,0.01,,,0.02,meteohub,2013-03-03 08:22:00,
2013-03-03 03:27:00,49.5,47.3,30.02,NW,315,0.0,0.0,92,0.01,,,0.02,meteohub,2013-03-03 08:27:00,
2013-03-03 03:32:00,49.5,47.5,30.02,NW,315,0.0,0.0,93,0.01,,,0.02,meteohub,2013-03-03 08:32:00,
2013-03-03 03:37:00,49.5,47.5,30.02,East,90,0.0,0.0,93,0.01,,,0.02,meteohub,2013-03-03 08:37:00,
2013-03-03 03:42:00,49.3,47.3,30.02,NW,315,1.0,2.0,93,0.01,,,0.02,meteohub,2013-03-03 08:42:00,
2013-03-03 03:47:00,49.3,47.3,30.02,NW,315,0.0,2.0,93,0.01,,,0.02,meteohub,2013-03-03 08:47:00,
2013-03-03 03:52:00,49.3,47.3,30.02,NW,315,0.0,2.0,93,0.01,,,0.02,meteohub,2013-03-03 08:52:00,
2013-03-03 03:57:00,49.5,47.5,30.02,NW,315,0.0,1.0,93,0.02,,,0.04,meteohub,2013-03-03 08:57:00,
2013-03-03 04:02:00,49.5,47.8,30.02,East,90,0.0,0.0,94,0.02,,,0.04,meteohub,2013-03-03 09:02:00,
2013-03-03 04:07:00,49.6,48.0,30.02,East,90,0.0,0.0,94,0.02,,,0.04,meteohub,2013-03-03 09:07:00,
2013-03-03 04:12:00,49.5,47.8,30.02,East,90,0.0,0.0,94,0.02,,,0.04,meteohub,2013-03-03 09:12:00,
2013-03-03 04:17:00,49.5,47.8,30.02,East,90,1.0,1.0,94,0.01,,,0.04,meteohub,2013-03-03 09:17:00,
2013-03-03 04:22:00,49.5,47.8,30.02,NE,45,0.0,1.0,94,0.02,,,0.05,meteohub,2013-03-03 09:22:00,
2013-03-03 04:27:00,49.5,48.0,30.03,NE,45,0.0,1.0,95,0.02,,,0.05,meteohub,2013-03-03 09:27:00,
2013-03-03 04:32:00,49.3,47.8,30.02,NE,45,2.0,2.0,95,0.02,,,0.05,meteohub,2013-03-03 09:32:00,
2013-03-03 04:37:00,49.3,47.8,30.02,East,90,0.0,2.0,95,0.02,,,0.05,meteohub,2013-03-03 09:37:00,
2013-03-03 04:42:00,49.3,47.8,30.02,East,90,0.0,2.0,95,0.02,,,0.05,meteohub,2013-03-03 09:42:00,
2013-03-03 04:47:00,49.3,47.8,30.02,East,90,0.0,2.0,95,0.02,,,0.05,meteohub,2013-03-03 09:47:00,
2013-03-03 04:52:00,49.3,47.8,30.03,East,90,0.0,2.0,95,0.02,,,0.05,meteohub,2013-03-03 09:52:00,
2013-03-03 04:57:00,49.1,47.7,30.02,North,0,0.0,0.0,95,0.01,,,0.05,meteohub,2013-03-03 09:57:00,
2013-03-03 05:02:00,49.1,47.7,30.02,North,0,0.0,0.0,95,0.01,,,0.05,meteohub,2013-03-03 10:02:00,
2013-03-03 05:07:00,49.1,48.0,30.02,North,0,0.0,0.0,96,0.01,,,0.05,meteohub,2013-03-03 10:07:00,
2013-03-03 05:12:00,49.1,48.0,30.02,North,0,0.0,0.0,96,0.01,,,0.05,meteohub,2013-03-03 10:12:00,
2013-03-03 05:17:00,49.1,48.0,30.02,North,0,0.0,0.0,96,0.01,,,0.06,meteohub,2013-03-03 10:17:00,
2013-03-03 05:22:00,49.1,48.0,30.02,North,0,0.0,0.0,96,0.01,,,0.06,meteohub,2013-03-03 10:22:00,
2013-03-03 05:27:00,49.3,48.2,30.03,North,0,0.0,0.0,96,0.01,,,0.06,meteohub,2013-03-03 10:27:00,
2013-03-03 05:32:00,49.3,48.4,30.03,North,0,0.0,0.0,97,0.01,,,0.06,meteohub,2013-03-03 10:32:00,
2013-03-03 05:37:00,49.3,48.4,30.03,North,0,0.0,0.0,97,0.01,,,0.06,meteohub,2013-03-03 10:37:00,
2013-03-03 05:42:00,49.3,48.4,30.03,North,0,0.0,0.0,97,0.01,,,0.06,meteohub,2013-03-03 10:42:00,
2013-03-03 05:47:00,49.3,48.4,30.02,North,0,0.0,0.0,97,0.01,,,0.06,meteohub,2013-03-03 10:47:00,
2013-03-03 05:52:00,49.3,48.4,30.03,North,0,0.0,0.0,97,0.01,,,0.06,meteohub,2013-03-03 10:52:00,
2013-03-03 05:57:00,49.3,48.4,30.03,West,270,0.0,0.0,97,0.01,,,0.06,meteohub,2013-03-03 10:57:00,
2013-03-03 06:02:00,49.5,48.6,30.03,SW,225,1.0,1.0,97,0.01,,,0.06,meteohub,2013-03-03 11:02:00,
2013-03-03 06:07:00,49.3,48.7,30.03,NW,315,1.0,1.0,98,0.01,,,0.06,meteohub,2013-03-03 11:07:00,
2013-03-03 06:12:00,49.3,48.7,30.02,North,0,1.0,2.0,98,0.01,,,0.06,meteohub,2013-03-03 11:12:00,
2013-03-03 06:17:00,49.3,48.7,30.04,NE,45,8.0,8.0,98,0.00,,,0.06,meteohub,2013-03-03 11:17:00,
2013-03-03 07:23:00,43.2,35.8,30.08,NW,315,8.0,10.0,75,0.00,,,0.06,meteohub,2013-03-03 12:23:00,
2013-03-03 07:28:00,43.2,35.1,30.08,NW,315,5.0,10.0,73,0.00,,,0.06,meteohub,2013-03-03 12:28:00,
2013-03-03 07:33:00,43.2,35.4,30.08,NW,315,4.0,10.0,74,0.00,,,0.06,meteohub,2013-03-03 12:33:00,
2013-03-03 07:38:00,43.3,35.2,30.09,NW,315,2.0,9.0,73,0.00,,,0.06,meteohub,2013-03-03 12:38:00,
2013-03-03 07:43:00,43.3,35.2,30.09,NW,315,2.0,7.0,73,0.00,,,0.06,meteohub,2013-03-03 12:43:00,
2013-03-03 07:48:00,43.5,35.4,30.09,NW,315,7.0,7.0,73,0.00,,,0.06,meteohub,2013-03-03 12:48:00,
2013-03-03 07:53:00,43.7,35.2,30.09,West,270,3.0,7.0,72,0.00,,,0.06,meteohub,2013-03-03 12:53:00,
2013-03-03 07:59:00,43.9,35.4,30.09,North,0,4.0,8.0,72,0.00,,,0.06,meteohub,2013-03-03 12:59:00,
2013-03-03 08:04:00,44.1,35.2,30.09,WNW,293,4.0,8.0,71,0.00,,,0.06,meteohub,2013-03-03 13:04:00,
2013-03-03 08:09:00,44.2,35.1,30.09,North,0,4.0,8.0,70,0.00,,,0.06,meteohub,2013-03-03 13:09:00,
2013-03-03 08:14:00,44.2,34.7,30.09,North,0,5.0,9.0,69,0.00,,,0.06,meteohub,2013-03-03 13:14:00,
2013-03-03 08:19:00,44.6,35.1,30.10,NW,315,4.0,9.0,69,0.00,,,0.06,meteohub,2013-03-03 13:19:00,
2013-03-03 08:24:00,44.8,34.9,30.10,SE,135,4.0,9.0,68,0.00,,,0.06,meteohub,2013-03-03 13:24:00,
2013-03-03 08:30:00,45.1,34.9,30.10,NW,315,2.0,7.0,67,0.00,,,0.06,meteohub,2013-03-03 13:30:00,
2013-03-03 08:35:00,45.5,35.2,30.10,NE,45,11.0,11.0,67,0.00,,,0.06,meteohub,2013-03-03 13:35:00,
2013-03-03 08:40:00,45.5,35.2,30.10,NE,45,4.0,11.0,67,0.00,,,0.06,meteohub,2013-03-03 13:40:00,
2013-03-03 08:45:00,45.7,35.1,30.09,NE,45,2.0,11.0,66,0.00,,,0.06,meteohub,2013-03-03 13:45:00,
2013-03-03 08:50:00,46.0,35.2,30.10,NW,315,7.0,11.0,66,0.00,,,0.06,meteohub,2013-03-03 13:50:00,
2013-03-03 08:56:00,46.0,34.5,30.10,WNW,293,7.0,8.0,64,0.00,,,0.06,meteohub,2013-03-03 13:56:00,
2013-03-03 09:01:00,46.0,34.2,30.10,North,0,4.0,8.0,63,0.00,,,0.06,meteohub,2013-03-03 14:01:00,
2013-03-03 09:06:00,45.9,34.3,30.11,NW,315,2.0,8.0,64,0.00,,,0.06,meteohub,2013-03-03 14:06:00,
2013-03-03 09:11:00,46.0,35.2,30.11,NW,315,6.0,7.0,66,0.00,,,0.06,meteohub,2013-03-03 14:11:00,
2013-03-03 09:16:00,46.2,35.1,30.12,NW,315,4.0,7.0,65,0.00,,,0.06,meteohub,2013-03-03 14:16:00,
2013-03-03 09:21:00,47.1,36.7,30.12,NW,315,1.0,7.0,67,0.00,,,0.06,meteohub,2013-03-03 14:21:00,
2013-03-03 09:26:00,47.8,37.4,30.12,NW,315,2.0,7.0,67,0.00,,,0.06,meteohub,2013-03-03 14:26:00,
2013-03-03 09:32:00,49.1,37.8,30.12,SW,225,0.0,4.0,65,0.00,,,0.06,meteohub,2013-03-03 14:32:00,
2013-03-03 09:37:00,51.1,38.1,30.12,WNW,293,3.0,5.0,61,0.00,,,0.06,meteohub,2013-03-03 14:37:00,
2013-03-03 09:42:00,52.9,39.0,30.12,North,0,2.0,5.0,59,0.00,,,0.06,meteohub,2013-03-03 14:42:00,
2013-03-03 09:47:00,55.0,37.8,30.12,East,90,2.0,5.0,52,0.00,,,0.06,meteohub,2013-03-03 14:47:00,
2013-03-03 09:52:00,56.3,37.4,30.12,NW,315,4.0,6.0,49,0.00,,,0.06,meteohub,2013-03-03 14:52:00,
2013-03-03 09:57:00,56.1,37.8,30.12,NW,315,2.0,6.0,50,0.00,,,0.06,meteohub,2013-03-03 14:57:00,
2013-03-03 10:02:00,58.1,37.4,30.11,SW,225,2.0,6.0,46,0.00,,,0.06,meteohub,2013-03-03 15:02:00,
2013-03-03 10:07:00,59.5,38.7,30.11,North,0,3.0,4.0,46,0.00,,,0.06,meteohub,2013-03-03 15:07:00,
2013-03-03 10:12:00,61.3,38.1,30.11,South,180,3.0,3.0,42,0.00,,,0.06,meteohub,2013-03-03 15:12:00,
2013-03-03 10:17:00,62.1,38.1,30.10,SW,225,2.0,6.0,41,0.00,,,0.06,meteohub,2013-03-03 15:17:00,
2013-03-03 10:22:00,61.7,37.8,30.10,NW,315,2.0,6.0,41,0.00,,,0.06,meteohub,2013-03-03 15:22:00,
2013-03-03 10:27:00,62.1,37.4,30.10,East,90,1.0,6.0,40,0.00,,,0.06,meteohub,2013-03-03 15:27:00,
2013-03-03 10:32:00,63.1,37.8,30.10,SW,225,2.0,4.0,39,0.00,,,0.06,meteohub,2013-03-03 15:32:00,
2013-03-03 10:37:00,63.1,35.8,30.10,South,180,2.0,3.0,36,0.00,,,0.06,meteohub,2013-03-03 15:37:00,
2013-03-03 10:42:00,62.4,37.2,30.10,NE,45,2.0,6.0,39,0.00,,,0.06,meteohub,2013-03-03 15:42:00,
2013-03-03 10:47:00,62.8,37.4,30.10,North,0,4.0,6.0,39,0.00,,,0.06,meteohub,2013-03-03 15:47:00,
2013-03-03 10:52:00,62.8,36.1,30.10,SW,225,6.0,6.0,37,0.00,,,0.06,meteohub,2013-03-03 15:52:00,
2013-03-03 10:57:00,62.1,38.1,30.10,West,270,2.0,6.0,41,0.00,,,0.06,meteohub,2013-03-03 15:57:00,
2013-03-03 11:02:00,63.0,37.0,30.11,North,0,4.0,6.0,38,0.00,,,0.06,meteohub,2013-03-03 16:02:00,
2013-03-03 11:07:00,61.5,36.3,30.11,SW,225,5.0,6.0,39,0.00,,,0.06,meteohub,2013-03-03 16:07:00,
2013-03-03 11:12:00,61.9,39.2,30.11,West,270,2.0,8.0,43,0.00,,,0.06,meteohub,2013-03-03 16:12:00,
2013-03-03 11:17:00,61.9,37.9,30.11,NE,45,5.0,8.0,41,0.00,,,0.06,meteohub,2013-03-03 16:17:00,
2013-03-03 11:22:00,62.4,39.0,30.11,SW,225,6.0,8.0,42,0.00,,,0.06,meteohub,2013-03-03 16:22:00,
2013-03-03 11:27:00,63.7,39.6,30.11,NW,315,6.0,8.0,41,0.00,,,0.06,meteohub,2013-03-03 16:27:00,
2013-03-03 11:32:00,62.4,37.8,30.11,South,180,3.0,6.0,40,0.00,,,0.06,meteohub,2013-03-03 16:32:00,
2013-03-03 11:37:00,64.4,41.4,30.10,West,270,4.0,8.0,43,0.00,,,0.06,meteohub,2013-03-03 16:37:00,
2013-03-03 11:42:00,64.9,40.1,30.10,SW,225,4.0,8.0,40,0.00,,,0.06,meteohub,2013-03-03 16:42:00,
2013-03-03 11:47:00,65.8,40.1,30.09,SW,225,2.0,6.0,39,0.00,,,0.06,meteohub,2013-03-03 16:47:00,
2013-03-03 11:52:00,66.9,40.5,30.09,North,0,2.0,6.0,38,0.00,,,0.06,meteohub,2013-03-03 16:52:00,
2013-03-03 11:57:00,67.1,40.6,30.09,SW,225,9.0,9.0,38,0.00,,,0.06,meteohub,2013-03-03 16:57:00,
2013-03-03 12:02:00,64.2,39.4,30.09,West,270,7.0,9.0,40,0.00,,,0.06,meteohub,2013-03-03 17:02:00,
2013-03-03 12:07:00,63.5,39.9,30.09,SW,225,7.0,10.0,42,0.00,,,0.06,meteohub,2013-03-03 17:07:00,
2013-03-03 12:12:00,64.9,40.6,30.09,North,0,4.0,11.0,41,0.00,,,0.06,meteohub,2013-03-03 17:12:00,
2013-03-03 12:17:00,64.2,38.7,30.09,SW,225,8.0,11.0,39,0.00,,,0.06,meteohub,2013-03-03 17:17:00,
2013-03-03 12:22:00,63.1,39.0,30.09,South,180,7.0,11.0,41,0.00,,,0.06,meteohub,2013-03-03 17:22:00,
2013-03-03 12:27:00,64.2,41.2,30.09,WNW,293,5.0,11.0,43,0.00,,,0.06,meteohub,2013-03-03 17:27:00,
2013-03-03 12:32:00,61.7,38.3,30.08,SW,225,15.0,15.0,42,0.00,,,0.06,meteohub,2013-03-03 17:32:00,
2013-03-03 12:37:00,61.0,38.3,30.08,South,180,7.0,15.0,43,0.00,,,0.06,meteohub,2013-03-03 17:37:00,
2013-03-03 12:42:00,61.5,39.4,30.08,South,180,9.0,15.0,44,0.00,,,0.06,meteohub,2013-03-03 17:42:00,
2013-03-03 12:47:00,60.3,38.8,30.07,SW,225,8.0,15.0,45,0.00,,,0.06,meteohub,2013-03-03 17:47:00,
2013-03-03 12:52:00,62.4,40.8,30.07,SW,225,10.0,14.0,45,0.00,,,0.06,meteohub,2013-03-03 17:52:00,
2013-03-03 12:57:00,63.9,41.5,30.07,South,180,2.0,13.0,44,0.00,,,0.06,meteohub,2013-03-03 17:57:00,
2013-03-03 13:02:00,66.7,41.7,30.07,South,180,7.0,10.0,40,0.00,,,0.06,meteohub,2013-03-03 18:02:00,
2013-03-03 13:07:00,65.1,38.8,30.08,WSW,248,17.0,17.0,38,0.00,,,0.06,meteohub,2013-03-03 18:07:00,
2013-03-03 13:12:00,62.4,39.0,30.08,SW,225,11.0,17.0,42,0.00,,,0.06,meteohub,2013-03-03 18:12:00,
2013-03-03 13:17:00,61.5,38.8,30.07,SW,225,9.0,17.0,43,0.00,,,0.06,meteohub,2013-03-03 18:17:00,
2013-03-03 13:22:00,61.3,39.7,30.07,SW,225,8.0,17.0,45,0.00,,,0.06,meteohub,2013-03-03 18:22:00,
2013-03-03 13:27:00,62.1,40.5,30.07,SW,225,11.0,11.0,45,0.00,,,0.06,meteohub,2013-03-03 18:27:00,
2013-03-03 13:33:00,61.2,39.0,30.06,SW,225,14.0,14.0,44,0.00,,,0.06,meteohub,2013-03-03 18:33:00,
2013-03-03 13:38:00,60.8,39.9,30.07,West,270,7.0,17.0,46,0.00,,,0.06,meteohub,2013-03-03 18:38:00,
2013-03-03 13:43:00,61.3,41.0,30.06,SW,225,8.0,17.0,47,0.00,,,0.06,meteohub,2013-03-03 18:43:00,
2013-03-03 13:48:00,62.8,41.7,30.06,East,90,5.0,15.0,46,0.00,,,0.06,meteohub,2013-03-03 18:48:00,
2013-03-03 13:53:00,64.8,43.0,30.06,South,180,10.0,11.0,45,0.00,,,0.06,meteohub,2013-03-03 18:53:00,
2013-03-03 13:58:00,64.0,42.3,30.05,SW,225,8.0,17.0,45,0.00,,,0.06,meteohub,2013-03-03 18:58:00,
2013-03-03 14:03:00,64.6,42.8,30.05,SW,225,14.0,17.0,45,0.00,,,0.06,meteohub,2013-03-03 19:03:00,
2013-03-03 14:09:00,63.3,41.0,30.05,SW,225,11.0,17.0,44,0.00,,,0.06,meteohub,2013-03-03 19:09:00,
2013-03-03 14:14:00,64.4,43.2,30.05,South,180,9.0,17.0,46,0.00,,,0.06,meteohub,2013-03-03 19:14:00,
2013-03-03 14:19:00,63.9,42.1,30.05,SW,225,17.0,17.0,45,0.00,,,0.06,meteohub,2013-03-03 19:19:00,
2013-03-03 14:24:00,62.6,42.1,30.04,NNW,338,8.0,17.0,47,0.00,,,0.06,meteohub,2013-03-03 19:24:00,
2013-03-03 14:29:00,63.0,41.4,30.05,South,180,16.0,17.0,45,0.00,,,0.06,meteohub,2013-03-03 19:29:00,
2013-03-03 14:34:00,61.2,40.8,30.06,South,180,18.0,18.0,47,0.00,,,0.06,meteohub,2013-03-03 19:34:00,
2013-03-03 14:39:00,59.9,41.2,30.05,SW,225,11.0,19.0,50,0.00,,,0.06,meteohub,2013-03-03 19:39:00,
2013-03-03 14:44:00,61.2,41.9,30.05,South,180,20.0,22.0,49,0.00,,,0.06,meteohub,2013-03-03 19:44:00,
2013-03-03 14:50:00,62.1,42.6,30.06,SW,225,15.0,22.0,49,0.00,,,0.06,meteohub,2013-03-03 19:50:00,
2013-03-03 14:55:00,61.5,42.3,30.06,SW,225,15.0,20.0,49,0.00,,,0.06,meteohub,2013-03-03 19:55:00,
2013-03-03 15:00:00,61.3,43.0,30.06,South,180,12.0,21.0,51,0.00,,,0.06,meteohub,2013-03-03 20:00:00,
2013-03-03 15:05:00,61.0,43.2,30.06,SSE,158,10.0,21.0,52,0.00,,,0.06,meteohub,2013-03-03 20:05:00,
2013-03-03 15:10:00,61.3,43.5,30.06,South,180,16.0,21.0,52,0.00,,,0.06,meteohub,2013-03-03 20:10:00,
2013-03-03 15:15:00,61.0,43.2,30.06,South,180,12.0,19.0,52,0.00,,,0.06,meteohub,2013-03-03 20:15:00,
2013-03-03 15:21:00,61.5,43.2,30.07,SW,225,14.0,19.0,51,0.00,,,0.06,meteohub,2013-03-03 20:21:00,
2013-03-03 15:26:00,61.0,42.8,30.07,SSW,203,17.0,18.0,51,0.00,,,0.06,meteohub,2013-03-03 20:26:00,
2013-03-03 15:31:00,60.8,43.0,30.07,South,180,12.0,21.0,52,0.00,,,0.06,meteohub,2013-03-03 20:31:00,
2013-03-03 15:36:00,60.3,43.0,30.07,South,180,10.0,21.0,53,0.00,,,0.06,meteohub,2013-03-03 20:36:00,
2013-03-03 15:41:00,59.5,42.8,30.07,SW,225,10.0,21.0,54,0.00,,,0.06,meteohub,2013-03-03 20:41:00,
2013-03-03 15:46:00,59.5,43.3,30.07,West,270,10.0,17.0,55,0.00,,,0.06,meteohub,2013-03-03 20:46:00,
2013-03-03 15:52:00,60.8,43.5,30.07,South,180,15.0,15.0,53,0.00,,,0.06,meteohub,2013-03-03 20:52:00,
2013-03-03 15:57:00,59.2,43.0,30.07,SW,225,15.0,15.0,55,0.00,,,0.06,meteohub,2013-03-03 20:57:00,
2013-03-03 16:02:00,58.1,43.0,30.08,South,180,11.0,15.0,57,0.00,,,0.06,meteohub,2013-03-03 21:02:00,
2013-03-03 16:07:00,57.2,43.0,30.07,South,180,6.0,17.0,59,0.00,,,0.06,meteohub,2013-03-03 21:07:00,
2013-03-03 16:12:00,57.0,44.1,30.08,NW,315,14.0,17.0,62,0.00,,,0.06,meteohub,2013-03-03 21:12:00,
2013-03-03 16:17:00,56.3,43.9,30.09,South,180,13.0,17.0,63,0.00,,,0.06,meteohub,2013-03-03 21:17:00,
2013-03-03 16:22:00,56.1,44.6,30.08,SW,225,11.0,14.0,65,0.00,,,0.06,meteohub,2013-03-03 21:22:00,
2013-03-03 16:27:00,57.0,45.3,30.08,West,270,4.0,14.0,65,0.00,,,0.06,meteohub,2013-03-03 21:27:00,
2013-03-03 16:32:00,56.8,44.8,30.08,SW,225,13.0,13.0,64,0.00,,,0.06,meteohub,2013-03-03 21:32:00,
2013-03-03 16:37:00,57.0,45.0,30.08,SW,225,11.0,13.0,64,0.00,,,0.06,meteohub,2013-03-03 21:37:00,
2013-03-03 16:42:00,59.4,45.0,30.08,South,180,7.0,13.0,59,0.00,,,0.06,meteohub,2013-03-03 21:42:00,
2013-03-03 16:47:00,59.9,44.2,30.08,SE,135,9.0,13.0,56,0.00,,,0.06,meteohub,2013-03-03 21:47:00,
2013-03-03 16:52:00,59.9,44.2,30.08,SW,225,11.0,14.0,56,0.00,,,0.06,meteohub,2013-03-03 21:52:00,
2013-03-03 16:57:00,59.7,44.1,30.08,South,180,13.0,14.0,56,0.00,,,0.06,meteohub,2013-03-03 21:57:00,
2013-03-03 17:02:00,60.1,44.8,30.08,South,180,9.0,14.0,57,0.00,,,0.06,meteohub,2013-03-03 22:02:00,
2013-03-03 17:07:00,60.1,45.3,30.08,SW,225,11.0,13.0,58,0.00,,,0.06,meteohub,2013-03-03 22:07:00,
2013-03-03 17:12:00,58.3,44.4,30.09,South,180,11.0,13.0,60,0.00,,,0.06,meteohub,2013-03-03 22:12:00,
2013-03-03 17:17:00,56.7,45.0,30.09,South,180,10.0,13.0,65,0.00,,,0.06,meteohub,2013-03-03 22:17:00,
2013-03-03 17:22:00,56.1,45.0,30.09,SW,225,10.0,14.0,66,0.00,,,0.06,meteohub,2013-03-03 22:22:00,
2013-03-03 17:27:00,56.1,45.7,30.09,SW,225,8.0,14.0,68,0.00,,,0.06,meteohub,2013-03-03 22:27:00,
2013-03-03 17:32:00,57.0,46.6,30.09,SW,225,4.0,14.0,68,0.00,,,0.06,meteohub,2013-03-03 22:32:00,
2013-03-03 17:37:00,57.2,47.1,30.09,SW,225,7.0,11.0,69,0.00,,,0.06,meteohub,2013-03-03 22:37:00,
2013-03-03 17:42:00,57.2,46.8,30.10,SW,225,5.0,11.0,68,0.00,,,0.06,meteohub,2013-03-03 22:42:00,
2013-03-03 17:47:00,57.2,47.1,30.10,SW,225,4.0,11.0,69,0.00,,,0.06,meteohub,2013-03-03 22:47:00,
2013-03-03 17:52:00,56.3,46.6,30.10,West,270,2.0,10.0,70,0.00,,,0.06,meteohub,2013-03-03 22:52:00,
2013-03-03 17:58:00,55.9,46.8,30.10,West,270,4.0,10.0,71,0.00,,,0.06,meteohub,2013-03-03 22:58:00,
2013-03-03 18:03:00,55.8,46.6,30.10,SW,225,8.0,8.0,71,0.00,,,0.06,meteohub,2013-03-03 23:03:00,
2013-03-03 18:08:00,55.6,46.8,30.10,SSW,203,9.0,9.0,72,0.00,,,0.06,meteohub,2013-03-03 23:08:00,
2013-03-03 18:13:00,55.4,46.6,30.11,SW,225,10.0,10.0,72,0.00,,,0.06,meteohub,2013-03-03 23:13:00,
2013-03-03 18:18:00,55.6,46.0,30.11,SW,225,11.0,12.0,70,0.00,,,0.06,meteohub,2013-03-03 23:18:00,
2013-03-03 18:24:00,55.6,45.1,30.11,SW,225,2.0,12.0,68,0.00,,,0.06,meteohub,2013-03-03 23:24:00,
2013-03-03 18:29:00,55.4,44.6,30.11,SW,225,11.0,12.0,67,0.00,,,0.06,meteohub,2013-03-03 23:29:00,
2013-03-03 18:34:00,55.2,44.8,30.11,SW,225,4.0,14.0,68,0.00,,,0.06,meteohub,2013-03-03 23:34:00,
2013-03-03 18:39:00,55.0,45.1,30.11,SW,225,4.0,14.0,69,0.00,,,0.06,meteohub,2013-03-03 23:39:00,
2013-03-03 18:44:00,55.0,45.5,30.11,SW,225,3.0,14.0,70,0.00,,,0.06,meteohub,2013-03-03 23:44:00,
2013-03-03 18:49:00,55.0,45.1,30.11,SW,225,3.0,11.0,69,0.00,,,0.06,meteohub,2013-03-03 23:49:00,
2013-03-03 18:55:00,55.2,45.1,30.12,NW,315,5.0,11.0,69,0.00,,,0.06,meteohub,2013-03-03 23:55:00,
2013-03-03 19:00:00,55.2,44.8,30.11,SW,225,8.0,8.0,68,0.00,,,0.06,meteohub,2013-03-04 00:00:00,
2013-03-03 19:05:00,54.9,44.4,30.11,SSW,203,7.0,11.0,68,0.00,,,0.06,meteohub,2013-03-04 00:05:00,
2013-03-03 19:10:00,54.7,44.8,30.12,SW,225,5.0,11.0,69,0.00,,,0.06,meteohub,2013-03-04 00:10:00,
2013-03-03 19:15:00,54.3,44.4,30.12,SW,225,1.0,8.0,69,0.00,,,0.06,meteohub,2013-03-04 00:15:00,
2013-03-03 19:20:00,54.3,44.8,30.12,NW,315,6.0,8.0,70,0.00,,,0.06,meteohub,2013-03-04 00:20:00,
2013-03-03 19:25:00,54.1,45.0,30.12,West,270,4.0,8.0,71,0.00,,,0.06,meteohub,2013-03-04 00:25:00,
2013-03-03 19:31:00,54.0,44.8,30.12,SW,225,4.0,7.0,71,0.00,,,0.06,meteohub,2013-03-04 00:31:00,
2013-03-03 19:36:00,54.0,44.8,30.12,NW,315,0.0,7.0,71,0.00,,,0.06,meteohub,2013-03-04 00:36:00,
2013-03-03 19:41:00,53.8,44.6,30.13,West,270,10.0,10.0,71,0.00,,,0.06,meteohub,2013-03-04 00:41:00,
2013-03-03 19:46:00,53.8,44.6,30.13,WSW,248,2.0,10.0,71,0.00,,,0.06,meteohub,2013-03-04 00:46:00,
2013-03-03 19:51:00,53.8,45.0,30.13,SW,225,5.0,10.0,72,0.00,,,0.06,meteohub,2013-03-04 00:51:00,
2013-03-03 19:56:00,53.8,45.0,30.13,WSW,248,4.0,10.0,72,0.00,,,0.06,meteohub,2013-03-04 00:56:00,
2013-03-03 20:02:00,54.0,44.8,30.14,SW,225,4.0,7.0,71,0.00,,,0.06,meteohub,2013-03-04 01:02:00,
2013-03-03 20:07:00,54.0,44.8,30.14,SW,225,8.0,8.0,71,0.00,,,0.06,meteohub,2013-03-04 01:07:00,
2013-03-03 20:12:00,54.1,44.6,30.14,South,180,6.0,11.0,70,0.00,,,0.06,meteohub,2013-03-04 01:12:00,
2013-03-03 20:17:00,54.1,44.6,30.14,South,180,7.0,11.0,70,0.00,,,0.06,meteohub,2013-03-04 01:17:00,
2013-03-03 20:22:00,54.1,44.6,30.14,SW,225,8.0,11.0,70,0.00,,,0.06,meteohub,2013-03-04 01:22:00,
2013-03-03 20:27:00,54.1,44.2,30.14,West,270,6.0,8.0,69,0.00,,,0.06,meteohub,2013-03-04 01:27:00,
2013-03-03 20:32:00,54.1,44.2,30.14,SW,225,4.0,8.0,69,0.00,,,0.06,meteohub,2013-03-04 01:32:00,
2013-03-03 20:37:00,54.1,44.2,30.15,South,180,7.0,8.0,69,0.00,,,0.06,meteohub,2013-03-04 01:37:00,
2013-03-03 20:42:00,54.3,43.5,30.15,West,270,2.0,8.0,67,0.00,,,0.06,meteohub,2013-03-04 01:42:00,
2013-03-03 20:47:00,54.7,43.2,30.16,SW,225,8.0,8.0,65,0.00,,,0.06,meteohub,2013-03-04 01:47:00,
2013-03-03 20:52:00,54.9,43.0,30.16,SW,225,7.0,9.0,64,0.00,,,0.06,meteohub,2013-03-04 01:52:00,
2013-03-03 20:57:00,54.9,42.1,30.16,SW,225,11.0,11.0,62,0.00,,,0.06,meteohub,2013-03-04 01:57:00,
2013-03-03 21:02:00,55.0,42.3,30.17,SW,225,5.0,11.0,62,0.00,,,0.06,meteohub,2013-03-04 02:02:00,
2013-03-03 21:07:00,54.9,41.7,30.17,NW,315,4.0,11.0,61,0.00,,,0.06,meteohub,2013-03-04 02:07:00,
2013-03-03 21:12:00,54.7,41.5,30.17,South,180,6.0,11.0,61,0.00,,,0.06,meteohub,2013-03-04 02:12:00,
2013-03-03 21:17:00,54.9,41.7,30.17,West,270,5.0,8.0,61,0.00,,,0.06,meteohub,2013-03-04 02:17:00,
2013-03-03 21:22:00,54.9,41.2,30.17,SW,225,5.0,8.0,60,0.00,,,0.06,meteohub,2013-03-04 02:22:00,
2013-03-03 21:27:00,54.9,40.8,30.17,SW,225,8.0,8.0,59,0.00,,,0.06,meteohub,2013-03-04 02:27:00,
2013-03-03 21:32:00,55.0,40.5,30.18,SW,225,5.0,10.0,58,0.00,,,0.06,meteohub,2013-03-04 02:32:00,
2013-03-03 21:37:00,54.9,40.8,30.18,SW,225,3.0,10.0,59,0.00,,,0.06,meteohub,2013-03-04 02:37:00,
2013-03-03 21:43:00,54.7,41.0,30.18,South,180,5.0,9.0,60,0.00,,,0.06,meteohub,2013-03-04 02:43:00,
2013-03-03 21:48:00,54.7,41.5,30.18,SW,225,8.0,9.0,61,0.00,,,0.06,meteohub,2013-03-04 02:48:00,
2013-03-03 21:53:00,54.7,41.5,30.19,NW,315,1.0,9.0,61,0.00,,,0.06,meteohub,2013-03-04 02:53:00,
2013-03-03 21:58:00,54.5,41.7,30.19,NW,315,2.0,9.0,62,0.00,,,0.06,meteohub,2013-03-04 02:58:00,
2013-03-03 22:03:00,54.1,41.9,30.19,NW,315,0.0,8.0,63,0.00,,,0.06,meteohub,2013-03-04 03:03:00,
2013-03-03 22:08:00,53.6,42.1,30.19,North,0,0.0,6.0,65,0.00,,,0.06,meteohub,2013-03-04 03:08:00,
2013-03-03 22:13:00,53.2,43.3,30.19,SSW,203,2.0,2.0,69,0.00,,,0.06,meteohub,2013-03-04 03:13:00,
2013-03-03 22:19:00,52.7,43.2,30.19,West,270,0.0,4.0,70,0.00,,,0.06,meteohub,2013-03-04 03:19:00,
2013-03-03 22:24:00,52.2,43.0,30.20,West,270,1.0,4.0,71,0.00,,,0.06,meteohub,2013-03-04 03:24:00,
2013-03-03 22:29:00,51.4,42.8,30.19,SW,225,0.0,4.0,72,0.00,,,0.06,meteohub,2013-03-04 03:29:00,
2013-03-03 22:34:00,50.9,42.6,30.20,South,180,0.0,2.0,73,0.00,,,0.06,meteohub,2013-03-04 03:34:00,
2013-03-03 22:39:00,50.2,41.9,30.20,North,0,0.0,2.0,73,0.00,,,0.06,meteohub,2013-03-04 03:39:00,
2013-03-03 22:45:00,49.6,41.7,30.20,SE,135,0.0,2.0,74,0.00,,,0.06,meteohub,2013-03-04 03:45:00,
2013-03-03 22:50:00,49.6,41.7,30.20,SE,135,0.0,2.0,74,0.00,,,0.06,meteohub,2013-03-04 03:50:00,
2013-03-03 22:55:00,49.1,41.9,30.20,SW,225,0.0,2.0,76,0.00,,,0.06,meteohub,2013-03-04 03:55:00,
2013-03-03 23:00:00,48.7,41.5,30.20,NW,315,1.0,2.0,76,0.00,,,0.06,meteohub,2013-03-04 04:00:00,
2013-03-03 23:05:00,48.7,41.5,30.20,NW,315,1.0,2.0,76,0.00,,,0.06,meteohub,2013-03-04 04:05:00,
2013-03-03 23:10:00,48.2,41.4,30.19,NE,45,0.0,1.0,77,0.00,,,0.06,meteohub,2013-03-04 04:10:00,
2013-03-03 23:15:00,47.8,41.4,30.19,NW,315,1.0,1.0,78,0.00,,,0.06,meteohub,2013-03-04 04:15:00,
2013-03-03 23:20:00,47.8,41.7,30.19,NW,315,0.0,2.0,79,0.00,,,0.06,meteohub,2013-03-04 04:20:00,
2013-03-03 23:26:00,48.2,42.1,30.20,North,0,3.0,4.0,79,0.00,,,0.06,meteohub,2013-03-04 04:26:00,
2013-03-03 23:31:00,48.9,42.4,30.19,North,0,2.0,4.0,78,0.00,,,0.06,meteohub,2013-03-04 04:31:00,
2013-03-03 23:36:00,48.9,42.1,30.20,East,90,1.0,4.0,77,0.00,,,0.06,meteohub,2013-03-04 04:36:00,
2013-03-03 23:41:00,48.7,41.5,30.20,NW,315,2.0,4.0,76,0.00,,,0.06,meteohub,2013-03-04 04:41:00,
2013-03-03 23:46:00,48.6,41.4,30.20,SW,225,1.0,2.0,76,0.00,,,0.06,meteohub,2013-03-04 04:46:00,
2013-03-03 23:51:00,48.7,41.2,30.20,NW,315,1.0,2.0,75,0.00,,,0.06,meteohub,2013-03-04 04:51:00,
2013-03-03 23:57:00,48.6,41.0,30.19,NW,315,0.0,2.0,75,0.00,,,0.06,meteohub,2013-03-04 04:57:00,